createdAt,value
2022-11-30T00:00:58.411Z,6.53
2022-11-30T00:01:58.488Z,6.50
2022-11-30T00:02:57.520Z,6.50
2022-11-30T00:03:58.374Z,6.50
2022-11-30T00:04:57.393Z,6.52
2022-11-30T00:05:58.344Z,6.53
2022-11-30T00:06:57.372Z,6.52
2022-11-30T00:07:57.385Z,6.56
2022-11-30T00:08:57.346Z,6.55
2022-11-30T00:09:57.328Z,6.52
2022-11-30T00:10:57.311Z,6.52
2022-11-30T00:11:57.322Z,6.52
2022-11-30T00:12:57.282Z,6.52
2022-11-30T00:13:58.229Z,6.50
2022-11-30T00:14:57.256Z,6.50
2022-11-30T00:15:58.207Z,6.50
2022-11-30T00:16:58.235Z,6.49
2022-11-30T00:17:57.228Z,6.49
2022-11-30T00:18:57.218Z,6.49
2022-11-30T00:19:57.322Z,6.49
2022-11-30T00:20:57.177Z,6.49
2022-11-30T00:21:57.168Z,6.47
2022-11-30T00:22:58.111Z,6.45
2022-11-30T00:23:57.160Z,6.46
2022-11-30T00:24:57.119Z,6.47
2022-11-30T00:25:57.121Z,6.45
2022-11-30T00:26:57.099Z,6.45
2022-11-30T00:27:57.085Z,6.42
2022-11-30T00:28:58.030Z,6.42
2022-11-30T00:29:57.060Z,6.42
2022-11-30T00:30:57.075Z,6.45
2022-11-30T00:31:57.989Z,6.43
2022-11-30T00:32:57.010Z,6.43
2022-11-30T00:33:57.967Z,6.43
2022-11-30T00:34:56.991Z,6.43
2022-11-30T00:35:56.990Z,6.40
2022-11-30T00:36:56.960Z,6.40
2022-11-30T00:37:56.948Z,6.35
2022-11-30T00:38:56.949Z,6.37
2022-11-30T00:39:56.921Z,6.40
2022-11-30T00:40:56.901Z,6.40
2022-11-30T00:41:56.899Z,6.34
2022-11-30T00:42:56.882Z,6.35
2022-11-30T00:43:56.872Z,6.35
2022-11-30T00:44:56.855Z,6.35
2022-11-30T00:45:56.897Z,6.32
2022-11-30T00:46:56.822Z,6.32
2022-11-30T00:47:56.824Z,6.31
2022-11-30T00:48:56.853Z,6.34
2022-11-30T00:49:56.790Z,6.31
2022-11-30T00:50:56.768Z,6.31
2022-11-30T00:51:56.762Z,6.35
2022-11-30T00:52:56.754Z,6.35
2022-11-30T00:53:56.732Z,6.35
2022-11-30T00:54:56.711Z,6.34
2022-11-30T00:55:56.704Z,6.34
2022-11-30T00:56:56.681Z,6.32
2022-11-30T00:57:56.673Z,6.35
2022-11-30T00:58:56.661Z,6.35
2022-11-30T00:59:56.648Z,6.35
2022-11-30T01:00:56.702Z,6.34
2022-11-30T01:01:56.623Z,6.35
2022-11-30T01:02:56.608Z,6.32
2022-11-30T01:03:56.595Z,6.32
2022-11-30T01:04:56.567Z,6.35
2022-11-30T01:05:56.566Z,6.34
2022-11-30T01:06:56.548Z,6.32
2022-11-30T01:07:56.574Z,6.34
2022-11-30T01:08:56.525Z,6.34
2022-11-30T01:09:56.515Z,6.34
2022-11-30T01:10:56.495Z,6.34
2022-11-30T01:11:56.486Z,6.31
2022-11-30T01:12:56.461Z,6.32
2022-11-30T01:13:56.459Z,6.30
2022-11-30T01:14:56.457Z,6.30
2022-11-30T01:15:56.481Z,6.28
2022-11-30T01:16:56.547Z,6.28
2022-11-30T01:17:56.400Z,6.24
2022-11-30T01:18:57.349Z,6.25
2022-11-30T01:19:56.380Z,6.27
2022-11-30T01:20:56.360Z,6.24
2022-11-30T01:21:56.349Z,6.21
2022-11-30T01:22:56.327Z,6.25
2022-11-30T01:23:56.337Z,6.24
2022-11-30T01:24:56.313Z,6.21
2022-11-30T01:25:56.295Z,6.21
2022-11-30T01:26:56.270Z,6.21
2022-11-30T01:27:56.271Z,6.19
2022-11-30T01:28:56.254Z,6.21
2022-11-30T01:29:56.237Z,6.19
2022-11-30T01:30:56.269Z,6.16
2022-11-30T01:31:56.221Z,6.18
2022-11-30T01:32:56.201Z,6.18
2022-11-30T01:33:56.192Z,6.18
2022-11-30T01:34:56.167Z,6.15
2022-11-30T01:35:56.163Z,6.16
2022-11-30T01:36:56.141Z,6.15
2022-11-30T01:37:56.144Z,6.15
2022-11-30T01:38:56.128Z,6.13
2022-11-30T01:39:56.106Z,6.12
2022-11-30T01:40:56.083Z,6.13
2022-11-30T01:41:57.033Z,6.11
2022-11-30T01:42:56.062Z,6.12
2022-11-30T01:43:56.054Z,6.11
2022-11-30T01:44:56.034Z,6.08
2022-11-30T01:45:56.065Z,6.09
2022-11-30T01:46:56.005Z,6.09
2022-11-30T01:47:56.001Z,6.06
2022-11-30T01:48:57.466Z,6.08
2022-11-30T01:49:55.967Z,6.05
2022-11-30T01:50:55.945Z,6.05
2022-11-30T01:51:55.936Z,5.98
2022-11-30T01:52:55.916Z,5.98
2022-11-30T01:53:55.926Z,6.00
2022-11-30T01:54:55.895Z,5.97
2022-11-30T01:55:55.884Z,5.97
2022-11-30T01:56:55.875Z,5.93
2022-11-30T01:57:55.857Z,5.95
2022-11-30T01:58:55.849Z,5.95
2022-11-30T01:59:55.827Z,5.95
2022-11-30T02:00:55.872Z,5.93
2022-11-30T02:01:55.810Z,5.93
2022-11-30T02:02:55.841Z,5.93
2022-11-30T02:03:55.781Z,5.94
2022-11-30T02:04:55.761Z,5.93
2022-11-30T02:05:55.771Z,5.94
2022-11-30T02:06:55.741Z,5.94
2022-11-30T02:07:55.820Z,5.93
2022-11-30T02:08:55.718Z,5.94
2022-11-30T02:09:55.691Z,5.95
2022-11-30T02:10:56.642Z,5.95
2022-11-30T02:11:55.671Z,5.93
2022-11-30T02:12:55.661Z,5.94
2022-11-30T02:13:55.654Z,5.94
2022-11-30T02:14:55.629Z,5.94
2022-11-30T02:15:55.713Z,5.94
2022-11-30T02:16:55.602Z,5.93
2022-11-30T02:17:55.582Z,5.91
2022-11-30T02:18:55.592Z,5.90
2022-11-30T02:19:55.568Z,5.91
2022-11-30T02:20:55.552Z,5.87
2022-11-30T02:21:55.538Z,5.87
2022-11-30T02:22:55.514Z,5.88
2022-11-30T02:23:55.509Z,5.85
2022-11-30T02:24:55.495Z,5.88
2022-11-30T02:25:55.476Z,5.84
2022-11-30T02:26:55.466Z,5.82
2022-11-30T02:27:55.455Z,5.84
2022-11-30T02:28:55.457Z,5.85
2022-11-30T02:29:55.421Z,5.82
2022-11-30T02:30:55.417Z,5.80
2022-11-30T02:31:55.660Z,5.80
2022-11-30T02:32:55.387Z,5.84
2022-11-30T02:33:55.385Z,5.80
2022-11-30T02:34:55.357Z,5.79
2022-11-30T02:35:55.602Z,5.82
2022-11-30T02:36:55.327Z,5.79
2022-11-30T02:37:55.318Z,5.77
2022-11-30T02:38:55.336Z,5.77
2022-11-30T02:39:56.233Z,5.79
2022-11-30T02:40:55.277Z,5.80
2022-11-30T02:41:55.257Z,5.79
2022-11-30T02:42:55.251Z,5.82
2022-11-30T02:43:55.237Z,5.80
2022-11-30T02:44:55.236Z,5.82
2022-11-30T02:45:55.259Z,5.88
2022-11-30T02:46:55.204Z,5.87
2022-11-30T02:47:55.179Z,5.85
2022-11-30T02:48:55.180Z,5.87
2022-11-30T02:49:56.104Z,5.87
2022-11-30T02:50:55.141Z,5.91
2022-11-30T02:51:55.120Z,5.93
2022-11-30T02:52:55.114Z,5.93
2022-11-30T02:53:55.109Z,5.88
2022-11-30T02:54:55.090Z,5.90
2022-11-30T02:55:55.069Z,5.90
2022-11-30T02:56:55.069Z,5.91
2022-11-30T02:57:55.042Z,5.94
2022-11-30T02:58:55.050Z,5.94
2022-11-30T02:59:55.021Z,5.95
2022-11-30T03:00:55.001Z,5.94
2022-11-30T03:01:55.008Z,5.93
2022-11-30T03:02:55.023Z,5.97
2022-11-30T03:03:54.974Z,5.97
2022-11-30T03:04:55.897Z,5.95
2022-11-30T03:05:54.931Z,5.95
2022-11-30T03:06:54.932Z,5.98
2022-11-30T03:07:54.999Z,6.00
2022-11-30T03:08:54.912Z,5.98
2022-11-30T03:09:54.885Z,5.97
2022-11-30T03:10:54.870Z,5.95
2022-11-30T03:11:54.855Z,5.97
2022-11-30T03:12:54.855Z,5.95
2022-11-30T03:13:54.841Z,5.98
2022-11-30T03:14:54.821Z,5.94
2022-11-30T03:15:54.819Z,5.94
2022-11-30T03:16:54.792Z,5.93
2022-11-30T03:17:54.775Z,5.93
2022-11-30T03:18:54.777Z,5.93
2022-11-30T03:19:55.691Z,5.93
2022-11-30T03:20:54.744Z,5.93
2022-11-30T03:21:54.716Z,5.93
2022-11-30T03:22:54.702Z,5.93
2022-11-30T03:23:55.653Z,5.90
2022-11-30T03:24:55.633Z,5.94
2022-11-30T03:25:54.668Z,5.94
2022-11-30T03:26:54.658Z,5.88
2022-11-30T03:27:54.633Z,5.91
2022-11-30T03:28:54.637Z,5.91
2022-11-30T03:29:55.552Z,5.90
2022-11-30T03:30:54.681Z,5.88
2022-11-30T03:31:54.578Z,5.88
2022-11-30T03:32:54.571Z,5.90
2022-11-30T03:33:54.568Z,5.90
2022-11-30T03:34:54.546Z,5.90
2022-11-30T03:35:54.525Z,5.87
2022-11-30T03:36:54.517Z,5.87
2022-11-30T03:37:54.497Z,5.84
2022-11-30T03:38:54.508Z,5.88
2022-11-30T03:39:58.074Z,5.85
2022-11-30T03:40:54.460Z,5.84
2022-11-30T03:41:54.448Z,5.84
2022-11-30T03:42:54.437Z,5.84
2022-11-30T03:43:54.440Z,5.87
2022-11-30T03:44:54.410Z,5.82
2022-11-30T03:45:54.390Z,5.82
2022-11-30T03:46:54.432Z,5.87
2022-11-30T03:47:54.371Z,5.84
2022-11-30T03:48:54.372Z,5.80
2022-11-30T03:49:55.287Z,5.82
2022-11-30T03:50:54.323Z,5.82
2022-11-30T03:51:54.312Z,5.80
2022-11-30T03:52:54.302Z,5.84
2022-11-30T03:53:54.293Z,5.79
2022-11-30T03:54:54.264Z,5.79
2022-11-30T03:55:54.260Z,5.80
2022-11-30T03:56:54.260Z,5.79
2022-11-30T03:57:54.232Z,5.79
2022-11-30T03:58:54.220Z,5.77
2022-11-30T03:59:55.154Z,5.75
2022-11-30T04:00:54.195Z,5.76
2022-11-30T04:01:54.263Z,5.75
2022-11-30T04:02:54.201Z,5.73
2022-11-30T04:03:54.170Z,5.72
2022-11-30T04:04:54.137Z,5.73
2022-11-30T04:05:54.123Z,5.69
2022-11-30T04:06:54.104Z,5.70
2022-11-30T04:07:54.186Z,5.70
2022-11-30T04:08:54.092Z,5.69
2022-11-30T04:09:54.076Z,5.66
2022-11-30T04:10:54.061Z,5.70
2022-11-30T04:11:54.051Z,5.65
2022-11-30T04:12:54.034Z,5.66
2022-11-30T04:13:54.017Z,5.65
2022-11-30T04:14:53.995Z,5.66
2022-11-30T04:15:54.028Z,5.69
2022-11-30T04:16:53.967Z,5.66
2022-11-30T04:17:53.959Z,5.66
2022-11-30T04:18:53.955Z,5.67
2022-11-30T04:19:53.932Z,5.66
2022-11-30T04:20:53.920Z,5.69
2022-11-30T04:21:53.903Z,5.65
2022-11-30T04:22:53.888Z,5.62
2022-11-30T04:23:53.884Z,5.65
2022-11-30T04:24:53.858Z,5.65
2022-11-30T04:25:53.848Z,5.65
2022-11-30T04:26:53.829Z,5.62
2022-11-30T04:27:53.819Z,5.62
2022-11-30T04:28:53.810Z,5.61
2022-11-30T04:29:53.789Z,5.61
2022-11-30T04:30:53.833Z,5.61
2022-11-30T04:31:53.765Z,5.62
2022-11-30T04:32:54.694Z,5.62
2022-11-30T04:33:53.745Z,5.61
2022-11-30T04:34:53.731Z,5.58
2022-11-30T04:35:53.712Z,5.58
2022-11-30T04:36:57.401Z,5.58
2022-11-30T04:37:54.689Z,5.57
2022-11-30T04:38:53.694Z,5.57
2022-11-30T04:39:53.660Z,5.58
2022-11-30T04:40:53.636Z,5.62
2022-11-30T04:41:53.651Z,5.58
2022-11-30T04:42:53.632Z,5.58
2022-11-30T04:43:53.611Z,5.58
2022-11-30T04:44:53.591Z,5.57
2022-11-30T04:45:53.571Z,5.57
2022-11-30T04:46:53.626Z,5.58
2022-11-30T04:47:53.558Z,5.55
2022-11-30T04:48:53.539Z,5.58
2022-11-30T04:49:53.525Z,5.57
2022-11-30T04:50:53.525Z,5.58
2022-11-30T04:51:53.493Z,5.58
2022-11-30T04:52:53.480Z,5.59
2022-11-30T04:53:53.472Z,5.57
2022-11-30T04:54:53.454Z,5.47
2022-11-30T04:55:53.439Z,5.43
2022-11-30T04:56:53.421Z,5.37
2022-11-30T04:57:53.415Z,5.30
2022-11-30T04:58:53.408Z,5.27
2022-11-30T04:59:53.386Z,5.25
2022-11-30T05:00:53.364Z,5.24
2022-11-30T05:01:53.390Z,5.25
2022-11-30T05:02:53.482Z,5.22
2022-11-30T05:03:53.335Z,5.22
2022-11-30T05:04:53.372Z,5.25
2022-11-30T05:05:53.307Z,5.25
2022-11-30T05:06:53.287Z,5.27
2022-11-30T05:07:53.309Z,5.25
2022-11-30T05:08:53.267Z,5.27
2022-11-30T05:09:53.259Z,5.29
2022-11-30T05:10:53.499Z,5.24
2022-11-30T05:11:53.218Z,5.32
2022-11-30T05:12:53.207Z,5.27
2022-11-30T05:13:53.198Z,5.29
2022-11-30T05:14:53.175Z,5.29
2022-11-30T05:15:53.204Z,5.27
2022-11-30T05:16:53.150Z,5.29
2022-11-30T05:17:53.138Z,5.27
2022-11-30T05:18:53.127Z,5.30
2022-11-30T05:19:53.108Z,5.29
2022-11-30T05:20:53.098Z,5.32
2022-11-30T05:21:53.089Z,5.32
2022-11-30T05:22:53.069Z,5.30
2022-11-30T05:23:53.069Z,5.33
2022-11-30T05:24:53.039Z,5.33
2022-11-30T05:25:53.040Z,5.32
2022-11-30T05:26:53.010Z,5.32
2022-11-30T05:27:53.005Z,5.32
2022-11-30T05:28:53.000Z,5.27
2022-11-30T05:29:52.981Z,5.32
2022-11-30T05:30:52.961Z,5.25
2022-11-30T05:31:53.006Z,5.22
2022-11-30T05:32:52.933Z,5.22
2022-11-30T05:33:52.952Z,5.21
2022-11-30T05:34:54.258Z,5.24
2022-11-30T05:35:52.892Z,5.24
2022-11-30T05:36:52.896Z,5.21
2022-11-30T05:37:52.879Z,5.19
2022-11-30T05:38:52.862Z,5.18
2022-11-30T05:39:52.843Z,5.19
2022-11-30T05:40:52.830Z,5.21
2022-11-30T05:41:54.787Z,5.19
2022-11-30T05:42:53.133Z,5.15
2022-11-30T05:43:52.802Z,5.14
2022-11-30T05:44:52.772Z,5.19
2022-11-30T05:45:53.733Z,5.15
2022-11-30T05:46:52.777Z,5.15
2022-11-30T05:47:52.740Z,5.15
2022-11-30T05:48:52.760Z,5.15
2022-11-30T05:49:52.715Z,5.16
2022-11-30T05:50:52.685Z,5.12
2022-11-30T05:51:52.861Z,5.15
2022-11-30T05:52:52.725Z,5.18
2022-11-30T05:53:52.665Z,5.15
2022-11-30T05:54:52.635Z,5.16
2022-11-30T05:56:01.595Z,5.18
2022-11-30T05:56:59.386Z,5.16
2022-11-30T06:05:08.054Z,5.18
2022-11-30T06:05:15.777Z,5.11
2022-11-30T06:06:12.815Z,5.14
2022-11-30T06:07:12.808Z,5.15
2022-11-30T06:08:12.798Z,5.12
2022-11-30T06:09:12.768Z,5.14
2022-11-30T06:10:12.768Z,5.15
2022-11-30T06:11:13.708Z,5.19
2022-11-30T06:12:12.736Z,5.16
2022-11-30T06:13:12.729Z,5.15
2022-11-30T06:14:12.707Z,5.16
2022-11-30T06:15:12.699Z,5.18
2022-11-30T06:16:14.718Z,5.19
2022-11-30T06:17:12.667Z,5.16
2022-11-30T06:18:12.678Z,5.21
2022-11-30T06:19:12.640Z,5.19
2022-11-30T06:20:12.639Z,5.21
2022-11-30T06:21:13.585Z,5.16
2022-11-30T06:22:12.602Z,5.18
2022-11-30T06:23:12.611Z,5.21
2022-11-30T06:24:12.576Z,5.21
2022-11-30T06:25:12.562Z,5.18
2022-11-30T06:26:12.546Z,5.21
2022-11-30T06:27:12.531Z,5.22
2022-11-30T06:28:12.549Z,5.19
2022-11-30T06:29:12.510Z,5.21
2022-11-30T06:30:12.494Z,5.18
2022-11-30T06:31:12.515Z,5.19
2022-11-30T06:32:12.723Z,5.19
2022-11-30T06:33:12.473Z,5.16
2022-11-30T06:34:12.465Z,5.15
2022-11-30T06:35:12.442Z,5.18
2022-11-30T06:36:12.413Z,5.18
2022-11-30T06:37:12.637Z,5.16
2022-11-30T06:38:12.404Z,5.16
2022-11-30T06:39:12.372Z,5.12
2022-11-30T06:40:12.367Z,5.11
2022-11-30T06:41:12.347Z,5.09
2022-11-30T06:42:12.335Z,5.09
2022-11-30T06:43:12.331Z,5.09
2022-11-30T06:44:12.305Z,5.06
2022-11-30T06:45:12.293Z,5.06
2022-11-30T06:46:12.372Z,5.06
2022-11-30T06:47:12.275Z,5.09
2022-11-30T06:48:12.265Z,5.06
2022-11-30T06:49:12.314Z,5.09
2022-11-30T06:50:12.239Z,5.09
2022-11-30T06:51:12.218Z,5.07
2022-11-30T06:52:12.209Z,5.07
2022-11-30T06:53:12.188Z,5.09
2022-11-30T06:54:12.187Z,5.09
2022-11-30T06:55:12.171Z,5.07
2022-11-30T06:56:12.151Z,5.07
2022-11-30T06:57:12.160Z,5.07
2022-11-30T06:58:12.178Z,5.11
2022-11-30T06:59:12.150Z,5.04
2022-11-30T07:00:12.360Z,5.07
2022-11-30T07:01:12.137Z,5.07
2022-11-30T07:02:17.494Z,5.06
2022-11-30T07:03:13.058Z,5.06
2022-11-30T07:04:12.081Z,5.07
2022-11-30T07:05:12.040Z,5.04
2022-11-30T07:06:12.079Z,5.01
2022-11-30T07:07:12.030Z,5.00
2022-11-30T07:08:11.990Z,5.03
2022-11-30T07:09:11.969Z,5.01
2022-11-30T07:10:15.870Z,5.03
2022-11-30T07:11:12.950Z,5.01
2022-11-30T07:12:11.930Z,5.03
2022-11-30T07:13:11.950Z,5.03
2022-11-30T07:14:11.909Z,5.06
2022-11-30T07:15:11.891Z,5.01
2022-11-30T07:16:11.929Z,5.03
2022-11-30T07:17:11.865Z,5.01
2022-11-30T07:18:11.860Z,5.04
2022-11-30T07:19:11.832Z,5.01
2022-11-30T07:20:11.824Z,5.04
2022-11-30T07:21:11.812Z,5.04
2022-11-30T07:22:11.810Z,5.07
2022-11-30T07:23:11.801Z,5.11
2022-11-30T07:24:11.778Z,5.16
2022-11-30T07:25:11.749Z,5.14
2022-11-30T07:26:11.743Z,5.16
2022-11-30T07:27:11.724Z,5.19
2022-11-30T07:28:11.721Z,5.24
2022-11-30T07:29:11.702Z,5.27
2022-11-30T07:30:11.691Z,5.29
2022-11-30T07:31:16.002Z,5.30
2022-11-30T07:32:11.726Z,5.32
2022-11-30T07:33:11.655Z,5.25
2022-11-30T07:34:11.635Z,5.25
2022-11-30T07:35:11.622Z,5.30
2022-11-30T07:36:11.850Z,5.30
2022-11-30T07:37:11.595Z,5.32
2022-11-30T07:38:11.587Z,5.33
2022-11-30T07:39:11.567Z,5.36
2022-11-30T07:40:11.785Z,5.41
2022-11-30T07:41:11.533Z,5.37
2022-11-30T07:42:11.525Z,5.44
2022-11-30T07:43:11.537Z,5.47
2022-11-30T07:44:11.501Z,5.52
2022-11-30T07:45:11.476Z,5.54
2022-11-30T07:46:11.524Z,5.57
2022-11-30T07:47:11.494Z,5.57
2022-11-30T07:48:11.456Z,5.62
2022-11-30T07:49:12.383Z,5.58
2022-11-30T07:50:11.419Z,5.67
2022-11-30T07:51:11.418Z,5.70
2022-11-30T07:52:11.439Z,5.76
2022-11-30T07:53:11.408Z,5.82
2022-11-30T07:54:11.381Z,5.85
2022-11-30T07:55:11.350Z,5.93
2022-11-30T07:56:11.339Z,5.95
2022-11-30T07:57:11.322Z,6.00
2022-11-30T07:58:15.832Z,6.05
2022-11-30T07:59:12.301Z,6.08
2022-11-30T08:00:11.277Z,6.13
2022-11-30T08:01:11.379Z,6.18
2022-11-30T08:02:11.387Z,6.16
2022-11-30T08:03:11.252Z,6.19
2022-11-30T08:04:11.268Z,6.25
2022-11-30T08:05:11.211Z,6.28
2022-11-30T08:06:11.198Z,6.30
2022-11-30T08:07:11.179Z,6.31
2022-11-30T08:08:11.179Z,6.30
2022-11-30T08:09:11.162Z,6.37
2022-11-30T08:10:11.148Z,6.40
2022-11-30T08:11:11.130Z,6.42
2022-11-30T08:12:11.117Z,6.45
2022-11-30T08:13:11.114Z,6.46
2022-11-30T08:14:11.089Z,6.47
2022-11-30T08:15:19.951Z,6.47
2022-11-30T08:16:12.106Z,6.47
2022-11-30T08:17:11.043Z,6.45
2022-11-30T08:18:11.064Z,6.45
2022-11-30T08:19:11.032Z,6.46
2022-11-30T08:20:11.004Z,6.45
2022-11-30T08:21:11.007Z,6.47
2022-11-30T08:22:10.977Z,6.46
2022-11-30T08:23:10.994Z,6.47
2022-11-30T08:24:11.015Z,6.55
2022-11-30T08:25:10.977Z,6.57
2022-11-30T08:26:10.955Z,6.60
2022-11-30T08:27:10.924Z,6.61
2022-11-30T08:28:10.903Z,6.56
2022-11-30T08:29:10.886Z,6.49
2022-11-30T08:30:10.870Z,6.49
2022-11-30T08:31:10.913Z,6.47
2022-11-30T08:32:10.853Z,6.46
2022-11-30T08:33:10.867Z,6.45
2022-11-30T08:34:10.838Z,6.46
2022-11-30T08:35:11.040Z,6.47
2022-11-30T08:36:10.787Z,6.49
2022-11-30T08:37:11.728Z,6.56
2022-11-30T08:38:10.799Z,6.61
2022-11-30T08:39:10.794Z,6.64
2022-11-30T08:40:10.740Z,6.70
2022-11-30T08:41:10.741Z,6.71
2022-11-30T08:42:10.740Z,6.74
2022-11-30T08:43:10.703Z,6.75
2022-11-30T08:44:10.678Z,6.79
2022-11-30T08:45:10.677Z,6.81
2022-11-30T08:46:34.656Z,6.83
2022-11-30T08:47:11.713Z,6.83
2022-11-30T08:48:10.646Z,6.85
2022-11-30T08:49:25.805Z,6.85
2022-11-30T08:50:11.598Z,6.78
2022-11-30T08:51:10.601Z,6.82
2022-11-30T08:52:18.626Z,6.79
2022-11-30T08:53:11.581Z,6.81
2022-11-30T08:54:10.542Z,6.83
2022-11-30T08:55:10.537Z,6.85
2022-11-30T08:56:10.520Z,6.91
2022-11-30T08:57:10.518Z,6.93
2022-11-30T08:58:10.522Z,7.00
2022-11-30T08:59:10.485Z,7.00
2022-11-30T09:00:10.463Z,6.97
2022-11-30T09:01:10.455Z,6.93
2022-11-30T09:02:10.540Z,6.93
2022-11-30T09:03:10.451Z,6.89
2022-11-30T09:04:10.422Z,6.86
2022-11-30T09:05:10.801Z,6.88
2022-11-30T09:06:10.439Z,6.93
2022-11-30T09:07:10.374Z,6.99
2022-11-30T09:08:10.389Z,7.01
2022-11-30T09:09:10.346Z,7.01
2022-11-30T09:10:10.331Z,7.04
2022-11-30T09:11:10.327Z,7.11
2022-11-30T09:12:10.300Z,7.11
2022-11-30T09:13:10.486Z,7.16
2022-11-30T09:14:10.277Z,7.22
2022-11-30T09:15:10.279Z,7.31
2022-11-30T09:16:10.283Z,7.28
2022-11-30T09:17:10.248Z,7.37
2022-11-30T09:18:10.226Z,7.43
2022-11-30T09:19:10.207Z,7.47
2022-11-30T09:20:10.233Z,7.50
2022-11-30T09:21:11.153Z,7.55
2022-11-30T09:22:10.191Z,7.50
2022-11-30T09:23:10.175Z,7.50
2022-11-30T09:24:10.148Z,7.55
2022-11-30T09:25:10.137Z,7.55
2022-11-30T09:26:10.154Z,7.50
2022-11-30T09:27:10.111Z,7.58
2022-11-30T09:28:12.445Z,7.58
2022-11-30T09:29:10.096Z,7.58
2022-11-30T09:30:10.067Z,7.60
2022-11-30T09:31:10.084Z,7.68
2022-11-30T09:32:10.032Z,7.69
2022-11-30T09:33:10.053Z,7.66
2022-11-30T09:34:10.010Z,7.68
2022-11-30T09:35:12.782Z,7.61
2022-11-30T09:36:10.771Z,7.62
2022-11-30T09:37:09.971Z,7.62
2022-11-30T09:38:09.974Z,7.61
2022-11-30T09:39:09.944Z,7.64
2022-11-30T09:40:09.921Z,7.68
2022-11-30T09:41:09.911Z,7.71
2022-11-30T09:42:09.895Z,7.73
2022-11-30T09:43:09.902Z,7.77
2022-11-30T09:44:09.890Z,7.78
2022-11-30T09:45:09.865Z,7.76
2022-11-30T09:46:09.909Z,7.76
2022-11-30T09:47:09.834Z,7.78
2022-11-30T09:48:09.824Z,7.80
2022-11-30T09:49:09.827Z,7.81
2022-11-30T09:50:09.793Z,7.86
2022-11-30T09:51:09.791Z,7.84
2022-11-30T09:52:09.772Z,7.84
2022-11-30T09:53:09.775Z,7.91
2022-11-30T09:54:09.738Z,7.91
2022-11-30T09:55:09.731Z,7.98
2022-11-30T09:56:09.715Z,7.95
2022-11-30T09:57:09.702Z,7.98
2022-11-30T09:58:09.696Z,8.05
2022-11-30T09:59:09.676Z,8.06
2022-11-30T10:00:09.661Z,8.06
2022-11-30T10:01:09.974Z,8.14
2022-11-30T10:02:09.707Z,8.16
2022-11-30T10:03:09.692Z,8.19
2022-11-30T10:04:09.607Z,8.20
2022-11-30T10:05:09.597Z,8.26
2022-11-30T10:06:09.579Z,8.26
2022-11-30T10:07:09.573Z,8.23
2022-11-30T10:08:09.601Z,8.29
2022-11-30T10:09:09.560Z,8.35
2022-11-30T10:10:30.927Z,8.35
2022-11-30T10:11:12.386Z,8.37
2022-11-30T10:12:09.504Z,8.41
2022-11-30T10:13:09.499Z,8.38
2022-11-30T10:14:09.469Z,8.39
2022-11-30T10:15:09.462Z,8.42
2022-11-30T10:16:09.770Z,8.46
2022-11-30T10:17:09.454Z,8.50
2022-11-30T10:18:09.430Z,8.47
2022-11-30T10:19:09.411Z,8.52
2022-11-30T10:20:10.353Z,8.56
2022-11-30T10:21:09.649Z,8.63
2022-11-30T10:22:09.674Z,8.68
2022-11-30T10:23:09.372Z,8.62
2022-11-30T10:24:09.389Z,8.71
2022-11-30T10:25:12.008Z,8.74
2022-11-30T10:26:09.325Z,8.85
2022-11-30T10:27:10.269Z,8.90
2022-11-30T10:28:38.488Z,8.90
2022-11-30T10:29:10.284Z,8.93
2022-11-30T10:30:09.264Z,8.89
2022-11-30T10:31:09.319Z,8.93
2022-11-30T10:32:09.263Z,8.96
2022-11-30T10:33:09.232Z,9.03
2022-11-30T10:34:09.235Z,9.14
2022-11-30T10:35:09.208Z,9.23
2022-11-30T10:36:09.196Z,9.30
2022-11-30T10:37:09.198Z,9.24
2022-11-30T10:38:09.195Z,9.29
2022-11-30T10:39:14.173Z,9.32
2022-11-30T10:40:10.162Z,9.41
2022-11-30T10:41:09.121Z,9.47
2022-11-30T10:42:09.107Z,9.57
2022-11-30T10:43:09.096Z,9.44
2022-11-30T10:44:09.087Z,9.30
2022-11-30T10:45:09.097Z,9.24
2022-11-30T10:46:13.996Z,9.30
2022-11-30T10:47:10.045Z,9.40
2022-11-30T10:48:09.040Z,9.42
2022-11-30T10:49:09.028Z,9.50
2022-11-30T10:50:09.022Z,9.57
2022-11-30T10:51:08.985Z,9.52
2022-11-30T10:52:08.999Z,9.51
2022-11-30T10:53:08.960Z,9.47
2022-11-30T10:54:08.959Z,9.37
2022-11-30T10:55:08.971Z,9.33
2022-11-30T10:56:08.939Z,9.32
2022-11-30T10:57:08.921Z,9.34
2022-11-30T10:58:08.894Z,9.33
2022-11-30T10:59:08.903Z,9.27
2022-11-30T11:00:08.891Z,9.29
2022-11-30T11:01:08.907Z,9.29
2022-11-30T11:02:08.880Z,9.30
2022-11-30T11:03:08.883Z,9.26
2022-11-30T11:04:08.942Z,9.22
2022-11-30T11:05:08.804Z,9.24
2022-11-30T11:06:09.741Z,9.19
2022-11-30T11:07:08.874Z,9.18
2022-11-30T11:08:08.790Z,9.15
2022-11-30T11:09:08.761Z,9.09
2022-11-30T11:10:09.683Z,9.11
2022-11-30T11:11:08.718Z,9.14
2022-11-30T11:12:08.732Z,9.15
2022-11-30T11:13:08.693Z,9.19
2022-11-30T11:14:08.684Z,9.23
2022-11-30T11:15:08.665Z,9.27
2022-11-30T11:16:09.625Z,9.15
2022-11-30T11:17:08.644Z,8.98
2022-11-30T11:18:08.624Z,8.89
2022-11-30T11:19:08.621Z,8.80
2022-11-30T11:20:08.615Z,8.70
2022-11-30T11:21:08.602Z,8.65
2022-11-30T11:22:08.578Z,8.71
2022-11-30T11:23:08.563Z,8.63
2022-11-30T11:24:08.557Z,8.62
2022-11-30T11:25:08.529Z,8.63
2022-11-30T11:26:08.517Z,8.70
2022-11-30T11:27:09.467Z,8.72
2022-11-30T11:28:08.490Z,8.75
2022-11-30T11:29:08.506Z,8.71
2022-11-30T11:30:08.483Z,8.68
2022-11-30T11:31:08.711Z,8.70
2022-11-30T11:32:08.463Z,8.63
2022-11-30T11:33:08.429Z,8.63
2022-11-30T11:34:08.429Z,8.59
2022-11-30T11:35:08.405Z,8.41
2022-11-30T11:36:08.379Z,8.42
2022-11-30T11:37:08.378Z,8.34
2022-11-30T11:38:08.350Z,8.23
2022-11-30T11:39:08.370Z,8.13
2022-11-30T11:40:08.334Z,8.04
2022-11-30T11:41:08.319Z,7.98
2022-11-30T11:42:08.320Z,7.98
2022-11-30T11:43:08.292Z,7.95
2022-11-30T11:44:08.300Z,7.98
2022-11-30T11:45:08.280Z,8.02
2022-11-30T11:46:08.285Z,8.04
2022-11-30T11:47:08.267Z,8.10
2022-11-30T11:48:08.226Z,8.19
2022-11-30T11:49:08.223Z,8.23
2022-11-30T11:50:08.198Z,8.23
2022-11-30T11:51:08.661Z,8.20
2022-11-30T11:52:08.163Z,8.26
2022-11-30T11:53:08.358Z,8.23
2022-11-30T11:54:08.260Z,8.21
2022-11-30T11:55:08.164Z,8.20
2022-11-30T11:56:08.114Z,8.19
2022-11-30T11:57:08.120Z,8.23
2022-11-30T11:58:08.095Z,8.24
2022-11-30T11:59:08.084Z,8.16
2022-11-30T12:00:15.667Z,8.10
2022-11-30T12:01:38.098Z,7.99
2022-11-30T12:02:09.045Z,7.94
2022-11-30T12:03:08.057Z,7.86
2022-11-30T12:04:08.065Z,7.83
2022-11-30T12:05:08.006Z,7.80
2022-11-30T12:06:07.976Z,7.83
2022-11-30T12:07:07.967Z,7.73
2022-11-30T12:08:08.978Z,7.74
2022-11-30T12:09:07.964Z,7.74
2022-11-30T12:10:28.233Z,7.73
2022-11-30T12:11:08.927Z,7.74
2022-11-30T12:12:07.905Z,7.76
2022-11-30T12:13:07.907Z,7.77
2022-11-30T12:14:07.900Z,7.76
2022-11-30T12:15:07.870Z,7.76
2022-11-30T12:16:07.874Z,7.76
2022-11-30T12:17:07.838Z,7.74
2022-11-30T12:18:14.182Z,7.74
2022-11-30T12:19:08.831Z,7.78
2022-11-30T12:20:07.798Z,7.71
2022-11-30T12:21:07.793Z,7.62
2022-11-30T12:22:07.768Z,7.69
2022-11-30T12:23:07.915Z,7.77
2022-11-30T12:24:07.749Z,7.81
2022-11-30T12:25:07.732Z,7.88
2022-11-30T12:26:07.709Z,7.95
2022-11-30T12:27:07.708Z,7.92
2022-11-30T12:28:07.701Z,7.98
2022-11-30T12:29:07.738Z,7.96
2022-11-30T12:30:07.662Z,8.01
2022-11-30T12:31:07.710Z,7.94
2022-11-30T12:32:07.639Z,7.86
2022-11-30T12:33:07.612Z,7.71
2022-11-30T12:34:07.633Z,7.58
2022-11-30T12:35:07.838Z,7.49
2022-11-30T12:36:07.597Z,7.44
2022-11-30T12:37:07.567Z,7.39
2022-11-30T12:38:07.562Z,7.43
2022-11-30T12:39:07.552Z,7.42
2022-11-30T12:40:07.551Z,7.46
2022-11-30T12:41:07.515Z,7.54
2022-11-30T12:42:07.536Z,7.62
2022-11-30T12:43:07.501Z,7.64
2022-11-30T12:44:07.498Z,7.62
2022-11-30T12:45:07.472Z,7.64
2022-11-30T12:46:07.526Z,7.66
2022-11-30T12:47:07.433Z,7.57
2022-11-30T12:48:07.425Z,7.50
2022-11-30T12:49:07.716Z,7.43
2022-11-30T12:50:07.548Z,7.40
2022-11-30T12:51:07.387Z,7.39
2022-11-30T12:52:07.372Z,7.42
2022-11-30T12:53:07.365Z,7.44
2022-11-30T12:54:07.357Z,7.47
2022-11-30T12:55:07.323Z,7.50
2022-11-30T12:56:07.329Z,7.49
2022-11-30T12:57:07.300Z,7.60
2022-11-30T12:58:07.327Z,7.71
2022-11-30T12:59:07.292Z,7.77
2022-11-30T13:00:07.423Z,7.86
2022-11-30T13:01:07.306Z,7.88
2022-11-30T13:02:07.292Z,7.96
2022-11-30T13:03:07.209Z,8.02
2022-11-30T13:04:07.210Z,8.09
2022-11-30T13:05:07.192Z,8.23
2022-11-30T13:06:07.188Z,8.38
2022-11-30T13:07:07.171Z,8.42
2022-11-30T13:08:07.215Z,8.55
2022-11-30T13:09:08.107Z,8.57
2022-11-30T13:10:07.164Z,8.59
2022-11-30T13:11:07.101Z,8.55
2022-11-30T13:12:07.101Z,8.44
2022-11-30T13:13:07.089Z,8.31
2022-11-30T13:14:07.123Z,8.34
2022-11-30T13:15:09.826Z,8.29
2022-11-30T13:16:08.086Z,8.34
2022-11-30T13:17:07.295Z,8.37
2022-11-30T13:18:07.032Z,8.26
2022-11-30T13:19:07.032Z,8.26
2022-11-30T13:20:07.234Z,8.21
2022-11-30T13:21:07.261Z,8.24
2022-11-30T13:22:07.013Z,8.26
2022-11-30T13:23:06.954Z,8.21
2022-11-30T13:24:06.979Z,8.23
2022-11-30T13:25:06.925Z,8.21